Time;durP1;ratioP1;P1;durP2;ratioP2;P2;SDS_P1;SDS_P2;PMS_P1;PMS_P2;Temp;Humidity;BMP_temperature;BMP_pressure;BME280_temperature;BME280_humidity;BME280_pressure;Samples;Min_cycle;Max_cycle;Signal;HPM_P1;HPM_P2
2022/11/02 00:45:08;;;;;;;;;;;11.70;99.90;;;;;;5057911;28;19941;-76
2022/11/02 00:47:34;;;;;;;;;;;11.70;99.90;;;;;;5073059;28;20383;-75
2022/11/02 00:50:00;;;;;;;;;;;11.70;99.90;;;;;;5073301;28;19999;-74
2022/11/02 00:52:25;;;;;;;;;;;11.50;99.90;;;;;;5072516;28;19940;-73
2022/11/02 00:54:51;;;;;;;;;;;11.10;99.90;;;;;;5069188;28;20284;-75
2022/11/02 00:57:18;;;;;;;;;;;10.70;99.90;;;;;;5064610;28;20327;-74
2022/11/02 00:59:44;;;;;;;;;;;10.50;99.90;;;;;;5071329;28;19917;-74
2022/11/02 01:02:10;;;;;;;;;;;10.40;99.90;;;;;;5071307;28;19917;-73
2022/11/02 01:04:37;;;;;;;;;;;10.30;99.90;;;;;;5072737;28;19966;-75
2022/11/02 01:07:03;;;;;;;;;;;10.30;99.90;;;;;;5055542;28;20249;-76
2022/11/02 01:09:32;;;;;;;;;;;10.20;99.90;;;;;;5072580;28;19955;-76
2022/11/02 01:11:57;;;;;;;;;;;10.10;99.90;;;;;;5075418;28;19916;-76
2022/11/02 01:14:23;;;;;;;;;;;10.10;99.90;;;;;;5075541;28;20208;-74
2022/11/02 01:16:49;;;;;;;;;;;10.10;99.90;;;;;;5072339;28;20012;-76
2022/11/02 01:19:14;;;;;;;;;;;10.10;99.90;;;;;;5073492;28;20318;-76
2022/11/02 01:21:42;;;;;;;;;;;10.20;99.90;;;;;;5072221;28;20334;-76
2022/11/02 01:24:18;;;;;;;;;;;10.40;99.90;;;;;;5073430;28;20324;-77
2022/11/02 01:26:44;;;;;;;;;;;10.50;99.90;;;;;;5069870;28;19920;-76
2022/11/02 01:29:11;;;;;;;;;;;10.50;99.90;;;;;;5068540;28;19924;-76
2022/11/02 01:31:36;;;;;;;;;;;10.50;99.90;;;;;;5071105;28;19976;-74
2022/11/02 01:34:07;;;;;;;;;;;10.50;99.90;;;;;;5077549;28;20022;-76
2022/11/02 01:36:36;;;;;;;;;;;10.60;99.90;;;;;;5076809;28;20307;-75
2022/11/02 01:39:04;;;;;;;;;;;10.50;99.90;;;;;;5076459;28;19920;-74
2022/11/02 01:41:32;;;;;;;;;;;10.50;99.90;;;;;;5077142;28;19919;-75
2022/11/02 02:39:11;;;;;;;;;;;10.20;99.90;;;;;;5073937;28;19927;-75
2022/11/02 02:41:41;;;;;;;;;;;10.30;99.90;;;;;;5071686;28;19913;-74
2022/11/02 02:44:10;;;;;;;;;;;10.40;99.90;;;;;;5073181;28;20027;-75
2022/11/02 02:46:40;;;;;;;;;;;10.40;99.90;;;;;;5076385;28;19978;-75
2022/11/02 02:49:10;;;;;;;;;;;10.50;99.90;;;;;;5073367;28;19974;-75
2022/11/02 02:51:36;;;;;;;;;;;10.50;99.90;;;;;;5047154;28;19956;-75
2022/11/02 02:54:02;;;;;;;;;;;10.50;99.90;;;;;;5075090;28;20307;-74
2022/11/02 02:56:44;;;;;;;;;;;10.50;99.90;;;;;;5074436;28;19923;-75
2022/11/02 02:59:28;;;;;;;;;;;10.50;99.90;;;;;;5075348;28;19913;-74
2022/11/02 03:01:57;;;;;;;;;;;10.50;99.90;;;;;;5063538;28;19962;-75
2022/11/02 03:04:26;;;;;;;;;;;10.60;99.90;;;;;;5073060;28;20339;-75
2022/11/02 03:06:56;;;;;;;;;;;10.60;99.90;;;;;;5058296;28;20011;-74
2022/11/02 03:09:31;;;;;;;;;;;10.70;99.90;;;;;;5076011;28;19917;-75
2022/11/02 03:12:06;;;;;;;;;;;10.70;99.90;;;;;;5074506;28;19912;-75
2022/11/02 03:14:32;;;;;;;;;;;10.80;99.90;;;;;;5074661;28;19923;-75
2022/11/02 03:17:13;;;;;;;;;;;10.80;99.90;;;;;;5087449;28;19999;-76
2022/11/02 03:19:57;;;;;;;;;;;10.80;99.90;;;;;;5068328;28;19923;-74
2022/11/02 03:22:31;;;;;;;;;;;10.80;99.90;;;;;;5070981;28;19959;-75
2022/11/02 03:25:11;;;;;;;;;;;10.80;99.90;;;;;;5075253;28;19924;-75
2022/11/02 03:27:40;;;;;;;;;;;10.90;99.90;;;;;;5065725;28;19963;-75
2022/11/02 03:30:06;;;;;;;;;;;10.90;99.90;;;;;;5088114;28;19959;-76
2022/11/02 03:32:41;;;;;;;;;;;10.90;99.90;;;;;;5073726;28;20216;-77
2022/11/02 03:35:12;;;;;;;;;;;10.90;99.90;;;;;;5075369;28;19917;-77
2022/11/02 03:37:40;;;;;;;;;;;11.00;99.90;;;;;;5073712;28;19928;-77
2022/11/02 03:40:06;;;;;;;;;;;10.90;99.90;;;;;;5075029;28;19913;-75
2022/11/02 03:42:32;;;;;;;;;;;11.00;99.90;;;;;;5071959;28;19923;-75
2022/11/02 03:45:06;;;;;;;;;;;11.00;99.90;;;;;;5074502;28;19927;-75
2022/11/02 03:47:32;;;;;;;;;;;11.00;99.90;;;;;;5073357;28;20207;-75
2022/11/02 03:50:03;;;;;;;;;;;11.00;99.90;;;;;;5075346;28;19912;-76
2022/11/02 03:52:32;;;;;;;;;;;11.00;99.90;;;;;;5070331;28;20219;-75
2022/11/02 03:55:03;;;;;;;;;;;11.00;99.90;;;;;;5071572;28;19916;-76
2022/11/02 03:57:41;;;;;;;;;;;11.00;99.90;;;;;;5073751;28;19990;-75
2022/11/02 04:00:07;;;;;;;;;;;10.90;99.90;;;;;;5064290;28;19916;-74
2022/11/02 04:02:35;;;;;;;;;;;10.90;99.90;;;;;;5064178;28;19936;-75
2022/11/02 04:05:00;;;;;;;;;;;10.90;99.90;;;;;;5073971;28;19916;-74
2022/11/02 04:07:28;;;;;;;;;;;10.90;99.90;;;;;;5074597;28;20003;-75
2022/11/02 04:09:56;;;;;;;;;;;10.90;99.90;;;;;;5074554;28;19923;-76
2022/11/02 04:15:09;;;;;;;;;;;10.90;99.90;;;;;;5066403;28;19962;-75
2022/11/02 04:20:25;;;;;;;;;;;10.90;99.90;;;;;;5074732;28;20041;-74
2022/11/02 04:25:37;;;;;;;;;;;10.90;99.90;;;;;;5074799;28;19951;-74
2022/11/02 04:28:07;;;;;;;;;;;11.00;99.90;;;;;;5096617;28;19997;-78
2022/11/02 04:30:34;;;;;;;;;;;11.00;99.90;;;;;;5071921;28;19912;-76
2022/11/02 04:35:49;;;;;;;;;;;11.00;99.90;;;;;;5069608;28;19923;-75
2022/11/02 04:43:46;;;;;;;;;;;11.00;99.90;;;;;;5070574;28;19966;-77
2022/11/02 04:46:12;;;;;;;;;;;11.00;99.90;;;;;;5069820;28;19924;-76
2022/11/02 04:48:38;;;;;;;;;;;11.00;99.90;;;;;;5071452;28;19919;-74
2022/11/02 04:51:04;;;;;;;;;;;11.00;99.90;;;;;;5073621;28;20309;-75
2022/11/02 04:53:29;;;;;;;;;;;10.90;99.90;;;;;;5072409;28;20007;-75
2022/11/02 04:55:55;;;;;;;;;;;11.00;99.90;;;;;;5074057;28;19913;-74
2022/11/02 04:58:20;;;;;;;;;;;11.00;99.90;;;;;;5072562;28;19964;-79
2022/11/02 05:00:46;;;;;;;;;;;11.00;99.90;;;;;;5073694;28;19920;-77
2022/11/02 05:03:11;;;;;;;;;;;10.90;99.90;;;;;;5073761;28;20337;-76
2022/11/02 05:05:37;;;;;;;;;;;10.90;99.90;;;;;;5075441;28;19921;-75
2022/11/02 05:08:03;;;;;;;;;;;10.90;99.90;;;;;;5076157;28;20017;-77
2022/11/02 05:10:29;;;;;;;;;;;10.90;99.90;;;;;;5067689;28;19926;-77
2022/11/02 05:12:58;;;;;;;;;;;10.90;99.90;;;;;;5078012;28;19924;-75
2022/11/02 05:15:24;;;;;;;;;;;11.00;99.90;;;;;;5076401;28;19916;-76
2022/11/02 05:17:49;;;;;;;;;;;10.90;99.90;;;;;;5077199;28;20280;-76
2022/11/02 05:20:15;;;;;;;;;;;10.90;99.90;;;;;;5076624;28;19913;-77
2022/11/02 05:22:41;;;;;;;;;;;11.00;99.90;;;;;;5069754;28;19912;-76
2022/11/02 05:25:07;;;;;;;;;;;10.90;99.90;;;;;;5075132;28;20266;-77
2022/11/02 05:27:33;;;;;;;;;;;10.90;99.90;;;;;;5109999;28;19919;-75
2022/11/02 05:29:59;;;;;;;;;;;11.00;99.90;;;;;;5077814;28;20274;-78
2022/11/02 05:32:25;;;;;;;;;;;10.90;99.90;;;;;;5076749;28;19916;-76
2022/11/02 05:34:51;;;;;;;;;;;10.90;99.90;;;;;;5069340;28;19959;-76
2022/11/02 05:37:16;;;;;;;;;;;10.90;99.90;;;;;;5075257;28;19956;-75
2022/11/02 05:39:42;;;;;;;;;;;10.90;99.90;;;;;;5071630;28;19917;-77
2022/11/02 05:42:07;;;;;;;;;;;10.90;99.90;;;;;;5076593;28;19912;-77
2022/11/02 05:44:33;;;;;;;;;;;10.90;99.90;;;;;;5077552;28;19974;-77
2022/11/02 05:46:59;;;;;;;;;;;10.80;99.90;;;;;;5075031;28;19950;-76
2022/11/02 05:49:24;;;;;;;;;;;10.80;99.90;;;;;;5073121;28;20316;-77
2022/11/02 05:51:50;;;;;;;;;;;10.80;99.90;;;;;;5074097;28;19913;-77
2022/11/02 05:54:16;;;;;;;;;;;10.80;99.90;;;;;;5073742;28;19917;-77
2022/11/02 05:56:41;;;;;;;;;;;10.80;99.90;;;;;;5075589;28;19920;-77
2022/11/02 05:59:07;;;;;;;;;;;10.80;99.90;;;;;;5073197;28;19923;-76
2022/11/02 06:01:32;;;;;;;;;;;10.80;99.90;;;;;;5075772;28;20219;-76
2022/11/02 06:03:58;;;;;;;;;;;10.80;99.90;;;;;;5076794;28;19919;-76
2022/11/02 06:06:24;;;;;;;;;;;10.90;99.90;;;;;;5075692;28;19978;-77
2022/11/02 06:08:49;;;;;;;;;;;10.90;99.90;;;;;;5070618;28;19920;-77
2022/11/02 06:11:15;;;;;;;;;;;10.90;99.90;;;;;;5077251;28;19936;-76
2022/11/02 06:13:41;;;;;;;;;;;10.80;99.90;;;;;;5058456;28;20216;-76
2022/11/02 06:16:08;;;;;;;;;;;10.90;99.90;;;;;;5076530;28;20438;-76
2022/11/02 06:18:34;;;;;;;;;;;10.90;99.90;;;;;;5071525;28;20032;-76
2022/11/02 06:21:00;;;;;;;;;;;10.80;99.90;;;;;;5064007;28;20254;-81
2022/11/02 06:23:26;;;;;;;;;;;10.80;99.90;;;;;;5070686;28;19925;-77
2022/11/02 06:25:52;;;;;;;;;;;10.80;99.90;;;;;;5070808;28;19920;-76
2022/11/02 06:28:18;;;;;;;;;;;10.70;99.90;;;;;;5071036;28;19924;-75
2022/11/02 06:30:43;;;;;;;;;;;10.70;99.90;;;;;;5055010;28;20254;-75
2022/11/02 06:33:09;;;;;;;;;;;10.70;99.90;;;;;;5061611;28;20224;-75
2022/11/02 06:35:34;;;;;;;;;;;10.70;99.90;;;;;;5075605;28;19953;-76
2022/11/02 06:38:00;;;;;;;;;;;10.70;99.90;;;;;;5066207;28;19949;-76
2022/11/02 06:40:27;;;;;;;;;;;10.70;99.90;;;;;;5062449;28;19925;-75
2022/11/02 06:42:56;;;;;;;;;;;10.70;99.90;;;;;;5066616;28;19909;-75
2022/11/02 06:45:22;;;;;;;;;;;10.70;99.90;;;;;;5063625;28;19920;-79
2022/11/02 06:47:48;;;;;;;;;;;10.80;99.90;;;;;;5076596;28;20196;-73
2022/11/02 06:50:13;;;;;;;;;;;10.90;99.90;;;;;;5063941;28;19925;-73
2022/11/02 06:52:45;;;;;;;;;;;10.90;99.90;;;;;;5057057;28;20280;-74
2022/11/02 06:55:12;;;;;;;;;;;11.00;99.90;;;;;;5064067;28;19971;-75
2022/11/02 06:57:37;;;;;;;;;;;11.10;99.90;;;;;;5061669;28;19926;-73
2022/11/02 07:00:07;;;;;;;;;;;11.00;99.90;;;;;;5068687;28;19909;-75
2022/11/02 07:02:33;;;;;;;;;;;11.00;99.90;;;;;;5061856;28;19913;-77
2022/11/02 07:04:58;;;;;;;;;;;11.00;99.90;;;;;;5064287;28;20318;-75
2022/11/02 07:07:24;;;;;;;;;;;11.00;99.90;;;;;;5065378;28;20326;-73
2022/11/02 07:09:49;;;;;;;;;;;11.10;99.90;;;;;;5060599;28;19908;-75
2022/11/02 07:12:15;;;;;;;;;;;11.10;99.90;;;;;;5066546;28;19920;-74
2022/11/02 07:14:40;;;;;;;;;;;11.10;99.90;;;;;;5071541;28;19927;-75
2022/11/02 07:17:06;;;;;;;;;;;11.10;99.90;;;;;;5071972;28;19924;-74
2022/11/02 07:19:31;;;;;;;;;;;11.10;99.90;;;;;;5071562;28;19924;-78
2022/11/02 07:21:57;;;;;;;;;;;11.20;99.90;;;;;;5072934;28;19909;-73
2022/11/02 07:24:22;;;;;;;;;;;11.20;99.90;;;;;;5073065;28;20017;-75
2022/11/02 07:26:51;;;;;;;;;;;11.20;99.90;;;;;;5074706;28;20327;-75
2022/11/02 07:29:16;;;;;;;;;;;11.20;99.90;;;;;;5072759;28;20475;-75
2022/11/02 07:31:42;;;;;;;;;;;11.20;99.90;;;;;;5073748;28;19955;-75
2022/11/02 07:34:07;;;;;;;;;;;11.20;99.90;;;;;;5073104;28;19991;-75
2022/11/02 07:36:33;;;;;;;;;;;11.20;99.90;;;;;;5075115;28;19913;-75
2022/11/02 07:38:58;;;;;;;;;;;11.30;99.90;;;;;;5072630;28;19921;-75
2022/11/02 07:41:24;;;;;;;;;;;11.30;99.90;;;;;;5061978;28;19923;-74
2022/11/02 07:43:49;;;;;;;;;;;11.30;99.90;;;;;;5074256;28;19920;-74
2022/11/02 07:46:15;;;;;;;;;;;11.40;99.90;;;;;;5073441;28;19920;-75
2022/11/02 07:48:40;;;;;;;;;;;11.40;99.90;;;;;;5070555;28;20314;-75
2022/11/02 07:51:07;;;;;;;;;;;11.40;99.90;;;;;;5073881;28;19917;-74
2022/11/02 07:53:32;;;;;;;;;;;11.40;99.90;;;;;;5073117;28;19913;-74
2022/11/02 07:56:02;;;;;;;;;;;11.50;99.90;;;;;;5073344;28;19912;-74
2022/11/02 07:58:27;;;;;;;;;;;11.50;99.90;;;;;;5074677;28;19962;-74
2022/11/02 08:00:56;;;;;;;;;;;11.50;99.90;;;;;;5072773;28;19920;-74
2022/11/02 08:03:21;;;;;;;;;;;11.50;99.90;;;;;;5073651;28;19943;-76
2022/11/02 08:05:47;;;;;;;;;;;11.50;99.90;;;;;;5070737;28;20404;-75
2022/11/02 08:08:14;;;;;;;;;;;11.50;99.90;;;;;;5073064;28;20015;-75
2022/11/02 08:10:40;;;;;;;;;;;11.60;99.90;;;;;;5074935;28;20205;-75
2022/11/02 08:13:06;;;;;;;;;;;11.60;99.90;;;;;;5073213;28;19913;-75
2022/11/02 08:15:32;;;;;;;;;;;11.60;99.90;;;;;;5069939;28;19913;-75
2022/11/02 08:18:01;;;;;;;;;;;11.70;99.90;;;;;;5072322;28;19920;-75
2022/11/02 08:20:27;;;;;;;;;;;11.70;99.90;;;;;;5073521;28;19916;-78
2022/11/02 08:22:53;;;;;;;;;;;11.70;99.90;;;;;;5072318;28;19920;-75
2022/11/02 08:25:19;;;;;;;;;;;11.80;99.90;;;;;;5072558;28;19916;-75
2022/11/02 08:27:44;;;;;;;;;;;11.80;99.90;;;;;;5066155;28;19962;-74
2022/11/02 08:30:10;;;;;;;;;;;11.90;99.90;;;;;;5073099;28;19932;-75
2022/11/02 08:32:35;;;;;;;;;;;11.90;99.90;;;;;;5074005;28;19916;-77
2022/11/02 08:35:01;;;;;;;;;;;11.90;99.90;;;;;;5073636;28;19920;-76
2022/11/02 08:37:26;;;;;;;;;;;11.90;99.90;;;;;;5065939;28;19916;-75
2022/11/02 08:39:52;;;;;;;;;;;12.00;99.90;;;;;;5053315;28;19992;-77
2022/11/02 08:42:18;;;;;;;;;;;12.00;99.90;;;;;;5043707;28;19920;-76
2022/11/02 08:44:43;;;;;;;;;;;12.10;99.90;;;;;;5026820;28;20355;-75
2022/11/02 08:47:09;;;;;;;;;;;12.10;99.90;;;;;;5054199;28;19931;-74
2022/11/02 08:49:34;;;;;;;;;;;12.20;99.90;;;;;;5035037;28;19917;-78
2022/11/02 08:51:59;;;;;;;;;;;12.20;99.90;;;;;;5053836;28;19940;-76
2022/11/02 08:54:25;;;;;;;;;;;12.30;99.90;;;;;;5053652;28;19912;-75
2022/11/02 08:56:50;;;;;;;;;;;12.30;99.90;;;;;;5051964;28;19913;-75
2022/11/02 08:59:16;;;;;;;;;;;12.40;99.90;;;;;;5052765;28;20263;-78
2022/11/02 09:01:41;;;;;;;;;;;12.40;99.90;;;;;;5049536;28;19935;-77
2022/11/02 09:04:07;;;;;;;;;;;12.40;99.90;;;;;;5027750;28;19925;-76
2022/11/02 09:06:33;;;;;;;;;;;12.40;99.90;;;;;;5042179;28;19931;-76
2022/11/02 09:08:58;;;;;;;;;;;12.50;99.90;;;;;;5042119;28;20308;-75
2022/11/02 09:11:24;;;;;;;;;;;12.50;99.90;;;;;;5045738;28;19920;-76
2022/11/02 09:13:49;;;;;;;;;;;12.60;99.90;;;;;;5035989;28;19916;-77
2022/11/02 09:16:15;;;;;;;;;;;12.60;99.90;;;;;;5044890;28;19945;-76
2022/11/02 09:18:40;;;;;;;;;;;12.70;99.90;;;;;;5042482;28;20477;-77
2022/11/02 09:21:06;;;;;;;;;;;12.80;99.90;;;;;;5034406;28;19916;-76
2022/11/02 09:23:31;;;;;;;;;;;12.80;99.90;;;;;;5053706;28;19913;-76
2022/11/02 09:25:58;;;;;;;;;;;12.80;99.90;;;;;;5054037;28;19917;-74
2022/11/02 09:28:24;;;;;;;;;;;12.90;99.90;;;;;;5035967;28;20212;-75
2022/11/02 09:30:49;;;;;;;;;;;13.00;99.90;;;;;;5050719;28;20366;-77
2022/11/02 09:33:15;;;;;;;;;;;13.10;99.90;;;;;;5043407;28;20378;-77
2022/11/02 09:35:42;;;;;;;;;;;13.30;99.90;;;;;;5025392;28;19917;-77
2022/11/02 09:38:07;;;;;;;;;;;13.40;99.90;;;;;;5055123;28;19921;-75
2022/11/02 09:40:37;;;;;;;;;;;13.50;99.90;;;;;;5070519;28;19917;-76
2022/11/02 09:43:02;;;;;;;;;;;13.40;99.90;;;;;;5066944;28;19956;-75
2022/11/02 09:45:31;;;;;;;;;;;13.30;99.90;;;;;;5073222;28;19920;-75
2022/11/02 09:47:59;;;;;;;;;;;13.20;99.90;;;;;;5069301;28;19969;-78
2022/11/02 09:50:30;;;;;;;;;;;13.20;99.90;;;;;;5062513;28;19970;-75
2022/11/02 09:52:57;;;;;;;;;;;13.30;99.90;;;;;;5074671;28;19991;-76
2022/11/02 09:55:28;;;;;;;;;;;13.30;99.90;;;;;;5073513;28;20011;-77
2022/11/02 09:57:57;;;;;;;;;;;13.30;99.90;;;;;;5069832;28;19916;-74
2022/11/02 10:00:23;;;;;;;;;;;13.40;99.90;;;;;;5072064;28;20323;-75
2022/11/02 10:02:49;;;;;;;;;;;13.40;99.90;;;;;;5073037;28;19991;-75
2022/11/02 10:05:20;;;;;;;;;;;13.50;99.90;;;;;;5075990;28;20342;-76
2022/11/02 10:08:04;;;;;;;;;;;13.50;99.90;;;;;;5076078;28;19916;-77
2022/11/02 10:10:45;;;;;;;;;;;13.60;99.90;;;;;;5075017;28;19961;-78
2022/11/02 10:13:13;;;;;;;;;;;13.70;99.90;;;;;;5074500;28;20034;-75
2022/11/02 10:15:48;;;;;;;;;;;13.70;99.90;;;;;;5074657;28;19913;-75
2022/11/02 10:18:24;;;;;;;;;;;13.80;99.90;;;;;;5074973;28;20019;-76
2022/11/02 10:20:51;;;;;;;;;;;13.80;99.90;;;;;;5075343;28;20257;-76
2022/11/02 10:23:21;;;;;;;;;;;13.90;99.90;;;;;;5076717;28;19924;-76
2022/11/02 10:25:48;;;;;;;;;;;14.00;99.90;;;;;;5074887;28;19920;-76
2022/11/02 10:28:16;;;;;;;;;;;14.00;99.90;;;;;;5075327;28;20347;-76
2022/11/02 10:30:42;;;;;;;;;;;14.10;99.90;;;;;;5076813;28;19940;-74
2022/11/02 10:33:15;;;;;;;;;;;14.10;99.90;;;;;;5063242;28;19997;-75
2022/11/02 10:35:59;;;;;;;;;;;14.20;99.90;;;;;;5065782;28;19916;-76
2022/11/02 10:38:43;;;;;;;;;;;14.20;99.90;;;;;;5071872;28;20227;-76
2022/11/02 10:41:12;;;;;;;;;;;14.20;99.90;;;;;;5074261;28;19920;-79
2022/11/02 10:43:58;;;;;;;;;;;14.20;99.90;;;;;;5084521;28;20215;-76
2022/11/02 10:46:30;;;;;;;;;;;14.10;99.90;;;;;;5061356;28;20003;-75
2022/11/02 10:49:14;;;;;;;;;;;14.20;99.90;;;;;;5076260;28;19920;-74
2022/11/02 10:51:40;;;;;;;;;;;14.10;99.90;;;;;;5073579;28;19948;-75
2022/11/02 10:54:10;;;;;;;;;;;14.20;99.90;;;;;;5069649;28;19967;-75
2022/11/02 10:56:36;;;;;;;;;;;14.20;99.90;;;;;;5074012;28;20254;-77
2022/11/02 10:59:07;;;;;;;;;;;14.30;99.90;;;;;;5075770;28;19916;-76
2022/11/02 11:01:33;;;;;;;;;;;14.50;99.90;;;;;;5063391;28;19998;-75
2022/11/02 11:04:00;;;;;;;;;;;14.50;99.90;;;;;;5069289;28;20279;-75
2022/11/02 11:06:27;;;;;;;;;;;14.50;99.90;;;;;;5073057;28;19966;-74
2022/11/02 11:08:57;;;;;;;;;;;14.60;99.90;;;;;;5071530;28;19912;-75
2022/11/02 11:11:24;;;;;;;;;;;14.60;99.90;;;;;;5102232;28;19959;-75
2022/11/02 11:14:01;;;;;;;;;;;14.70;99.90;;;;;;5073275;28;19917;-75
2022/11/02 11:16:37;;;;;;;;;;;14.60;99.90;;;;;;5063117;28;20379;-78
2022/11/02 11:19:04;;;;;;;;;;;14.40;99.90;;;;;;5070708;28;19916;-75
2022/11/02 11:21:36;;;;;;;;;;;14.20;99.90;;;;;;5068971;28;19951;-75
2022/11/02 11:24:31;;;;;;;;;;;14.00;99.90;;;;;;5072475;28;19916;-75
2022/11/02 11:27:00;;;;;;;;;;;13.90;99.90;;;;;;5070554;28;20311;-76
2022/11/02 11:29:28;;;;;;;;;;;13.80;99.90;;;;;;5073047;28;19917;-76
2022/11/02 11:31:54;;;;;;;;;;;13.80;99.90;;;;;;5066965;28;19943;-75
2022/11/02 11:34:25;;;;;;;;;;;14.00;99.90;;;;;;5073070;28;19913;-75
2022/11/02 11:36:51;;;;;;;;;;;14.30;99.90;;;;;;5086396;28;20238;-75
2022/11/02 11:39:27;;;;;;;;;;;14.60;99.90;;;;;;5073578;28;19938;-76
2022/11/02 11:41:52;;;;;;;;;;;14.90;99.90;;;;;;5067793;28;20219;-76
2022/11/02 11:44:18;;;;;;;;;;;15.10;99.90;;;;;;5071421;28;19920;-76
2022/11/02 11:46:52;;;;;;;;;;;15.10;99.90;;;;;;5068172;28;20368;-76
2022/11/02 11:49:20;;;;;;;;;;;15.10;99.90;;;;;;5065115;28;20314;-75
2022/11/02 11:51:49;;;;;;;;;;;15.20;99.90;;;;;;5068895;28;19964;-75
2022/11/02 11:54:30;;;;;;;;;;;15.10;99.90;;;;;;5077277;28;19925;-74
2022/11/02 11:57:16;;;;;;;;;;;15.20;99.90;;;;;;5072991;28;19923;-75
2022/11/02 11:59:41;;;;;;;;;;;15.10;99.90;;;;;;5072970;28;19997;-76
2022/11/02 12:02:19;;;;;;;;;;;15.10;99.90;;;;;;5073523;28;20015;-75
2022/11/02 12:04:45;;;;;;;;;;;15.10;99.90;;;;;;5073344;28;19930;-76
2022/11/02 12:07:18;;;;;;;;;;;15.00;99.90;;;;;;5072672;28;20018;-75
2022/11/02 12:09:52;;;;;;;;;;;14.80;99.90;;;;;;5074208;28;19912;-74
2022/11/02 12:12:36;;;;;;;;;;;14.80;99.90;;;;;;5066973;28;19947;-75
2022/11/02 12:15:02;;;;;;;;;;;14.80;99.90;;;;;;5070809;28;20316;-75
2022/11/02 12:17:57;;;;;;;;;;;15.00;99.90;;;;;;5074180;28;19913;-74
2022/11/02 12:20:33;;;;;;;;;;;15.00;99.90;;;;;;5069641;28;19916;-75
2022/11/02 12:23:18;;;;;;;;;;;14.90;99.90;;;;;;5072753;28;19999;-77
2022/11/02 12:25:50;;;;;;;;;;;14.80;99.90;;;;;;5069939;28;19916;-76
2022/11/02 12:28:36;;;;;;;;;;;14.90;99.90;;;;;;5073889;28;20316;-74
2022/11/02 12:31:20;;;;;;;;;;;15.00;99.90;;;;;;5073306;28;19924;-76
2022/11/02 12:33:48;;;;;;;;;;;15.20;99.90;;;;;;5072870;28;20339;-75
2022/11/02 12:36:19;;;;;;;;;;;15.30;99.90;;;;;;5073977;28;20208;-75
2022/11/02 12:38:48;;;;;;;;;;;15.40;99.90;;;;;;5073968;28;19924;-76
2022/11/02 12:41:19;;;;;;;;;;;15.40;99.90;;;;;;5071540;28;20275;-75
2022/11/02 12:43:49;;;;;;;;;;;15.60;99.90;;;;;;5073531;28;20007;-74
2022/11/02 12:46:17;;;;;;;;;;;15.50;99.90;;;;;;5053019;28;19920;-75
2022/11/02 12:49:02;;;;;;;;;;;15.40;99.90;;;;;;5072557;28;20007;-76
2022/11/02 12:51:27;;;;;;;;;;;15.30;99.90;;;;;;5080251;28;20246;-75
2022/11/02 12:54:03;;;;;;;;;;;15.30;99.90;;;;;;5069409;28;19909;-75
2022/11/02 12:56:31;;;;;;;;;;;15.20;99.90;;;;;;5067982;28;20334;-74
2022/11/02 12:58:57;;;;;;;;;;;15.20;99.90;;;;;;5067856;28;19921;-76
2022/11/02 13:01:33;;;;;;;;;;;15.20;99.90;;;;;;5066658;28;19912;-75
2022/11/02 13:04:02;;;;;;;;;;;15.20;99.90;;;;;;5062965;28;19913;-76
2022/11/02 13:06:30;;;;;;;;;;;15.20;99.90;;;;;;5065250;28;19927;-75
2022/11/02 13:09:00;;;;;;;;;;;15.20;99.90;;;;;;5064935;28;19913;-75
2022/11/02 13:11:29;;;;;;;;;;;15.20;99.90;;;;;;5067601;28;19921;-76
2022/11/02 13:13:56;;;;;;;;;;;15.20;99.90;;;;;;5067037;28;19920;-76
2022/11/02 13:16:36;;;;;;;;;;;15.20;99.90;;;;;;5068380;28;19920;-76
2022/11/02 13:19:02;;;;;;;;;;;15.10;99.90;;;;;;5068728;28;19921;-75
2022/11/02 13:21:39;;;;;;;;;;;15.10;99.90;;;;;;5104841;28;19917;-75
2022/11/02 13:24:10;;;;;;;;;;;15.10;99.90;;;;;;5072675;28;20357;-76
2022/11/02 13:26:37;;;;;;;;;;;15.10;99.90;;;;;;5106283;28;19925;-74
2022/11/02 13:29:02;;;;;;;;;;;15.00;99.90;;;;;;5073750;28;20044;-75
2022/11/02 13:31:33;;;;;;;;;;;15.00;99.90;;;;;;5071719;28;20012;-75
2022/11/02 13:34:01;;;;;;;;;;;14.90;99.90;;;;;;5075418;28;20299;-74
2022/11/02 13:36:27;;;;;;;;;;;14.90;99.90;;;;;;5069320;28;20020;-75
2022/11/02 13:38:57;;;;;;;;;;;14.80;99.90;;;;;;5072939;28;20004;-75
2022/11/02 13:41:22;;;;;;;;;;;14.80;99.90;;;;;;5072629;28;19916;-73
2022/11/02 13:43:48;;;;;;;;;;;14.80;99.90;;;;;;5072094;28;20045;-74
2022/11/02 13:46:37;;;;;;;;;;;14.80;99.90;;;;;;5055908;28;19916;-75
2022/11/02 13:49:05;;;;;;;;;;;14.70;99.90;;;;;;5054875;28;20339;-75
2022/11/02 13:51:42;;;;;;;;;;;14.70;99.90;;;;;;5067892;28;20100;-76
2022/11/02 13:54:10;;;;;;;;;;;14.70;99.90;;;;;;5079414;28;20034;-75
2022/11/02 13:56:41;;;;;;;;;;;14.70;99.90;;;;;;5067006;28;19924;-75
2022/11/02 13:59:08;;;;;;;;;;;14.70;99.90;;;;;;5070398;28;19916;-74
2022/11/02 14:01:37;;;;;;;;;;;14.60;99.90;;;;;;5071259;28;19912;-76
2022/11/02 14:04:10;;;;;;;;;;;14.60;99.90;;;;;;5071743;28;19939;-78
2022/11/02 14:06:44;;;;;;;;;;;14.50;99.90;;;;;;5062882;28;19917;-75
2022/11/02 14:09:16;;;;;;;;;;;14.40;99.90;;;;;;5074854;28;19969;-76
2022/11/02 14:11:41;;;;;;;;;;;14.40;99.90;;;;;;5073091;28;19924;-76
2022/11/02 14:14:10;;;;;;;;;;;14.50;99.90;;;;;;5075427;28;19913;-76
2022/11/02 14:16:38;;;;;;;;;;;14.40;99.90;;;;;;5075485;28;19923;-76
2022/11/02 14:19:12;;;;;;;;;;;14.50;99.90;;;;;;5073978;28;20007;-75
2022/11/02 14:21:44;;;;;;;;;;;14.40;99.90;;;;;;5075149;28;20235;-76
2022/11/02 14:24:28;;;;;;;;;;;14.40;99.90;;;;;;5074790;28;19909;-75
2022/11/02 14:26:55;;;;;;;;;;;14.40;99.90;;;;;;5076029;28;19920;-75
2022/11/02 14:29:39;;;;;;;;;;;14.40;99.90;;;;;;5070916;28;19915;-75
2022/11/02 14:32:33;;;;;;;;;;;14.30;99.90;;;;;;5070756;28;19916;-76
2022/11/02 14:35:10;;;;;;;;;;;14.30;99.90;;;;;;5071448;28;19917;-76
2022/11/02 14:37:54;;;;;;;;;;;14.30;99.90;;;;;;5069057;28;19924;-76
2022/11/02 14:40:47;;;;;;;;;;;14.30;99.90;;;;;;5081618;28;19920;-75
2022/11/02 14:43:15;;;;;;;;;;;14.30;99.90;;;;;;5072703;28;19913;-76
2022/11/02 14:45:47;;;;;;;;;;;14.20;99.90;;;;;;5075011;28;19916;-75
2022/11/02 14:48:15;;;;;;;;;;;14.20;99.90;;;;;;5066045;28;19912;-77
2022/11/02 14:50:41;;;;;;;;;;;14.10;99.90;;;;;;5067229;28;20325;-75
2022/11/02 14:53:08;;;;;;;;;;;14.00;99.90;;;;;;5070872;28;19916;-76
2022/11/02 14:55:34;;;;;;;;;;;14.00;99.90;;;;;;5076401;28;19912;-75
2022/11/02 14:58:02;;;;;;;;;;;14.00;99.90;;;;;;5072254;28;20361;-76
2022/11/02 15:00:53;;;;;;;;;;;13.90;99.90;;;;;;5069853;28;19920;-74
2022/11/02 15:03:24;;;;;;;;;;;13.90;99.90;;;;;;5073247;28;19912;-75
2022/11/02 15:06:06;;;;;;;;;;;13.70;99.90;;;;;;5075486;28;20223;-75
2022/11/02 15:08:48;;;;;;;;;;;13.70;99.90;;;;;;5070431;28;20250;-74
2022/11/02 15:11:32;;;;;;;;;;;13.60;99.90;;;;;;5076040;28;20212;-75
2022/11/02 15:13:58;;;;;;;;;;;13.50;99.90;;;;;;5076675;28;20215;-75
2022/11/02 15:16:24;;;;;;;;;;;13.50;99.90;;;;;;5076040;28;19914;-75
2022/11/02 15:18:49;;;;;;;;;;;13.40;99.90;;;;;;5063771;28;19922;-76
2022/11/02 15:21:18;;;;;;;;;;;13.40;99.90;;;;;;5074080;28;19916;-75
2022/11/02 15:23:52;;;;;;;;;;;13.30;99.90;;;;;;5072133;28;19913;-75
2022/11/02 15:26:22;;;;;;;;;;;13.20;99.90;;;;;;5068715;28;19916;-76
2022/11/02 15:28:48;;;;;;;;;;;13.10;99.90;;;;;;5070905;28;20578;-76
2022/11/02 15:31:18;;;;;;;;;;;13.00;99.90;;;;;;5073476;28;19919;-75
2022/11/02 15:33:48;;;;;;;;;;;13.00;99.90;;;;;;5074427;28;19920;-75
2022/11/02 15:36:17;;;;;;;;;;;12.90;99.90;;;;;;5071921;28;19912;-75
2022/11/02 15:38:45;;;;;;;;;;;12.90;99.90;;;;;;5072523;28;19920;-75
2022/11/02 15:41:11;;;;;;;;;;;12.80;99.90;;;;;;5071445;28;19916;-75
2022/11/02 15:44:00;;;;;;;;;;;12.80;99.90;;;;;;5072866;28;19966;-75
2022/11/02 15:46:32;;;;;;;;;;;12.80;99.90;;;;;;5068555;28;20007;-76
2022/11/02 15:49:16;;;;;;;;;;;12.70;99.90;;;;;;5072883;28;19917;-77
2022/11/02 15:51:54;;;;;;;;;;;12.70;99.90;;;;;;5071670;28;19921;-75
2022/11/02 15:54:19;;;;;;;;;;;12.70;99.90;;;;;;5072201;28;19924;-75
2022/11/02 15:56:58;;;;;;;;;;;12.60;99.90;;;;;;5072859;28;19916;-74
2022/11/02 15:59:27;;;;;;;;;;;12.60;99.90;;;;;;5068447;28;19967;-75
2022/11/02 16:02:09;;;;;;;;;;;12.60;99.90;;;;;;5071893;28;19920;-75
2022/11/02 16:04:35;;;;;;;;;;;12.50;99.90;;;;;;5067977;28;20005;-75
2022/11/02 16:07:05;;;;;;;;;;;12.50;99.90;;;;;;5066540;28;19924;-75
2022/11/02 16:09:32;;;;;;;;;;;12.50;99.90;;;;;;5071780;28;19917;-75
2022/11/02 16:12:12;;;;;;;;;;;12.40;99.90;;;;;;5071184;28;20211;-74
2022/11/02 16:14:38;;;;;;;;;;;12.30;99.90;;;;;;5066686;28;19920;-75
2022/11/02 16:17:04;;;;;;;;;;;12.40;99.90;;;;;;5066673;28;19974;-75
2022/11/02 16:19:29;;;;;;;;;;;12.30;99.90;;;;;;5065363;28;20315;-74
2022/11/02 16:21:55;;;;;;;;;;;12.30;99.90;;;;;;5071857;28;19928;-75
2022/11/02 16:24:20;;;;;;;;;;;12.30;99.90;;;;;;5068964;28;19919;-73